createdAt,value
2023-04-25T00:01:07.283Z,12.81
2023-04-25T00:02:39.474Z,12.82
2023-04-25T00:04:13.671Z,12.81
2023-04-25T00:05:46.701Z,12.80
2023-04-25T00:07:21.192Z,12.76
2023-04-25T00:08:54.405Z,12.79
2023-04-25T00:10:26.507Z,12.78
2023-04-25T00:11:58.603Z,12.79
2023-04-25T00:13:30.928Z,12.76
2023-04-25T00:15:03.159Z,12.75
2023-04-25T00:16:36.537Z,12.74
2023-04-25T00:18:09.341Z,12.74
2023-04-25T00:19:41.778Z,12.70
2023-04-25T00:21:13.788Z,12.71
2023-04-25T00:22:45.909Z,12.68
2023-04-25T00:24:18.081Z,12.68
2023-04-25T00:25:51.024Z,12.64
2023-04-25T00:27:23.116Z,12.64
2023-04-25T00:28:55.222Z,12.62
2023-04-25T00:30:27.327Z,12.62
2023-04-25T00:31:59.592Z,12.61
2023-04-25T00:33:31.748Z,12.60
2023-04-25T00:35:04.104Z,12.57
2023-04-25T00:36:36.335Z,12.56
2023-04-25T00:38:08.393Z,12.56
2023-04-25T00:39:40.508Z,12.51
2023-04-25T00:41:13.240Z,12.53
2023-04-25T00:42:46.172Z,12.53
2023-04-25T00:44:18.436Z,12.51
2023-04-25T00:45:52.626Z,12.51
2023-04-25T00:47:25.474Z,12.49
2023-04-25T00:48:57.533Z,12.47
2023-04-25T00:50:29.569Z,12.49
2023-04-25T00:53:36.222Z,12.43
2023-04-25T00:55:08.937Z,12.46
2023-04-25T00:56:41.201Z,12.44
2023-04-25T00:58:13.248Z,12.44
2023-04-25T00:59:47.201Z,12.47
2023-04-25T01:01:19.293Z,12.45
2023-04-25T01:02:51.925Z,12.44
2023-04-25T01:04:24.520Z,12.44
2023-04-25T01:05:56.773Z,12.42
2023-04-25T01:07:28.897Z,12.43
2023-04-25T01:09:01.186Z,12.41
2023-04-25T01:10:33.273Z,12.42
2023-04-25T01:12:05.767Z,12.43
2023-04-25T01:13:37.985Z,12.40
2023-04-25T01:15:10.397Z,12.39
2023-04-25T01:16:42.833Z,12.37
2023-04-25T01:18:15.060Z,12.35
2023-04-25T01:19:50.404Z,12.35
2023-04-25T01:21:22.409Z,12.32
2023-04-25T01:22:54.812Z,12.30
2023-04-25T01:24:27.303Z,12.26
2023-04-25T01:25:59.373Z,12.24
2023-04-25T01:27:31.625Z,12.19
2023-04-25T01:29:05.685Z,12.24
2023-04-25T01:30:37.775Z,12.21
2023-04-25T01:32:10.151Z,12.28
2023-04-25T01:33:42.302Z,12.31
2023-04-25T01:35:14.416Z,12.33
2023-04-25T01:36:46.825Z,12.37
2023-04-25T01:38:21.252Z,12.35
2023-04-25T01:39:54.119Z,12.35
2023-04-25T01:41:26.662Z,12.37
2023-04-25T01:42:58.743Z,12.37
2023-04-25T01:44:30.892Z,12.36
2023-04-25T01:46:03.187Z,12.35
2023-04-25T01:47:36.642Z,12.38
2023-04-25T01:49:09.074Z,12.37
2023-04-25T01:50:42.093Z,12.42
2023-04-25T01:52:14.207Z,12.38
2023-04-25T01:53:46.368Z,12.42
2023-04-25T01:55:18.432Z,12.39
2023-04-25T01:56:53.665Z,12.50
2023-04-25T01:58:25.765Z,12.49
2023-04-25T02:00:02.750Z,12.53
2023-04-25T02:01:34.952Z,12.50
2023-04-25T02:03:07.463Z,12.50
2023-04-25T02:04:39.756Z,12.47
2023-04-25T02:06:11.999Z,12.49
2023-04-25T02:07:44.332Z,12.49
2023-04-25T02:09:16.509Z,12.47
2023-04-25T02:10:48.685Z,12.46
2023-04-25T02:12:20.949Z,12.45
2023-04-25T02:13:53.216Z,12.44
2023-04-25T02:15:25.693Z,12.41
2023-04-25T02:16:58.755Z,12.37
2023-04-25T02:18:30.995Z,12.33
2023-04-25T02:20:03.244Z,12.31
2023-04-25T02:21:37.187Z,12.29
2023-04-25T02:23:09.397Z,12.29
2023-04-25T02:24:41.658Z,12.30
2023-04-25T02:26:14.737Z,12.29
2023-04-25T02:27:47.548Z,12.29
2023-04-25T02:29:19.574Z,12.30
2023-04-25T02:30:51.569Z,12.30
2023-04-25T02:32:23.862Z,12.27
2023-04-25T02:33:55.855Z,12.27
2023-04-25T02:35:27.999Z,12.25
2023-04-25T02:37:02.486Z,12.26
2023-04-25T02:38:34.819Z,12.21
2023-04-25T02:40:08.149Z,12.22
2023-04-25T02:41:40.326Z,12.22
2023-04-25T02:43:12.425Z,12.21
2023-04-25T02:44:44.462Z,12.19
2023-04-25T02:46:22.935Z,12.14
2023-04-25T02:48:01.005Z,12.09
2023-04-25T02:49:33.181Z,12.06
2023-04-25T02:51:05.389Z,12.07
2023-04-25T02:52:37.460Z,12.05
2023-04-25T02:54:09.501Z,12.06
2023-04-25T02:55:41.566Z,12.06
2023-04-25T02:57:13.646Z,12.04
2023-04-25T02:58:46.434Z,12.03
2023-04-25T03:00:18.601Z,12.03
2023-04-25T03:01:51.022Z,12.00
2023-04-25T03:03:23.236Z,12.02
2023-04-25T03:04:55.705Z,12.03
2023-04-25T03:06:27.820Z,12.02
2023-04-25T03:08:00.272Z,12.01
2023-04-25T03:09:32.416Z,12.04
2023-04-25T03:11:04.613Z,12.03
2023-04-25T03:12:36.848Z,12.02
2023-04-25T03:14:09.001Z,12.01
2023-04-25T03:15:41.107Z,12.00
2023-04-25T03:17:13.203Z,11.98
2023-04-25T03:18:45.392Z,11.98
2023-04-25T03:20:17.532Z,11.98
2023-04-25T03:21:49.725Z,11.99
2023-04-25T03:23:22.019Z,11.98
2023-04-25T03:24:54.218Z,11.97
2023-04-25T03:26:26.389Z,11.91
2023-04-25T03:27:58.500Z,11.88
2023-04-25T03:29:30.701Z,11.84
2023-04-25T03:31:02.866Z,11.81
2023-04-25T03:32:35.740Z,11.80
2023-04-25T03:34:07.949Z,11.79
2023-04-25T03:35:40.049Z,11.80
2023-04-25T03:37:12.226Z,11.78
2023-04-25T03:38:44.464Z,11.74
2023-04-25T03:40:16.569Z,11.73
2023-04-25T03:41:48.993Z,11.71
2023-04-25T03:43:21.148Z,11.68
2023-04-25T03:44:53.536Z,11.67
2023-04-25T03:46:25.809Z,11.64
2023-04-25T03:47:58.211Z,11.61
2023-04-25T03:49:30.347Z,11.55
2023-04-25T03:51:02.643Z,11.53
2023-04-25T03:52:34.843Z,11.50
2023-04-25T03:54:07.024Z,11.46
2023-04-25T03:55:40.028Z,11.45
2023-04-25T03:57:12.893Z,11.46
2023-04-25T03:58:45.462Z,11.42
2023-04-25T04:00:17.841Z,11.41
2023-04-25T04:01:51.084Z,11.39
2023-04-25T04:03:23.311Z,11.38
2023-04-25T04:04:57.681Z,11.41
2023-04-25T04:06:30.184Z,11.37
2023-04-25T04:08:02.259Z,11.40
2023-04-25T04:09:34.447Z,11.40
2023-04-25T04:11:06.560Z,11.38
2023-04-25T04:12:39.151Z,11.30
2023-04-25T04:14:11.931Z,11.22
2023-04-25T04:15:43.987Z,11.16
2023-04-25T04:17:16.093Z,11.09
2023-04-25T04:18:48.285Z,11.06
2023-04-25T04:20:21.318Z,11.06
2023-04-25T04:21:53.446Z,11.04
2023-04-25T04:23:25.925Z,11.03
2023-04-25T04:24:58.226Z,11.05
2023-04-25T04:26:30.465Z,11.05
2023-04-25T04:28:02.819Z,11.07
2023-04-25T04:29:34.927Z,11.09
2023-04-25T04:31:07.095Z,11.14
2023-04-25T04:32:39.695Z,11.20
2023-04-25T04:34:12.137Z,11.24
2023-04-25T04:35:44.521Z,11.28
2023-04-25T04:37:16.967Z,11.35
2023-04-25T04:38:49.271Z,11.42
2023-04-25T04:40:23.838Z,11.51
2023-04-25T04:41:55.957Z,11.57
2023-04-25T04:43:28.036Z,11.66
2023-04-25T04:45:00.164Z,11.74
2023-04-25T04:46:39.088Z,11.82
2023-04-25T04:48:13.322Z,11.88
2023-04-25T04:49:46.048Z,11.93
2023-04-25T04:51:18.111Z,12.02
2023-04-25T04:52:50.191Z,12.11
2023-04-25T04:54:22.318Z,12.20
2023-04-25T04:55:54.649Z,12.28
2023-04-25T04:57:27.238Z,12.39
2023-04-25T04:58:59.906Z,12.49
2023-04-25T05:00:32.366Z,12.60
2023-04-25T05:02:04.487Z,12.67
2023-04-25T05:03:36.782Z,12.75
2023-04-25T05:05:09.448Z,12.86
2023-04-25T05:06:41.963Z,12.93
2023-04-25T05:08:14.238Z,13.04
2023-04-25T05:09:46.428Z,13.14
2023-04-25T05:11:18.560Z,13.22
2023-04-25T05:12:50.687Z,13.29
2023-04-25T05:14:24.277Z,13.33
2023-04-25T05:15:56.366Z,13.39
2023-04-25T05:17:28.535Z,13.45
2023-04-25T05:19:00.763Z,13.51
2023-04-25T05:20:32.900Z,13.57
2023-04-25T05:22:05.281Z,13.66
2023-04-25T05:23:37.399Z,13.71
2023-04-25T05:25:10.906Z,13.82
2023-04-25T05:26:43.106Z,13.89
2023-04-25T05:28:15.184Z,13.93
2023-04-25T05:29:47.376Z,14.01
2023-04-25T05:31:19.493Z,14.10
2023-04-25T05:32:51.951Z,14.18
2023-04-25T05:34:24.088Z,14.25
2023-04-25T05:35:56.298Z,14.30
2023-04-25T05:37:28.409Z,14.38
2023-04-25T05:39:00.550Z,14.45
2023-04-25T05:40:32.664Z,14.55
2023-04-25T05:42:05.311Z,14.62
2023-04-25T05:43:39.868Z,14.73
2023-04-25T05:45:12.162Z,14.81
2023-04-25T05:46:44.350Z,14.90
2023-04-25T05:48:16.437Z,14.99
2023-04-25T05:49:51.206Z,15.06
2023-04-25T05:51:23.574Z,15.08
2023-04-25T05:52:55.686Z,15.16
2023-04-25T05:54:27.808Z,15.16
2023-04-25T05:55:59.889Z,15.14
2023-04-25T05:57:32.363Z,15.18
2023-04-25T05:59:04.771Z,15.20
2023-04-25T06:00:37.010Z,15.18
2023-04-25T06:02:12.444Z,15.23
2023-04-25T06:03:44.963Z,15.26
2023-04-25T06:05:17.660Z,15.29
2023-04-25T06:06:49.898Z,15.32
2023-04-25T06:08:21.989Z,15.33
2023-04-25T06:09:54.838Z,15.37
2023-04-25T06:11:26.879Z,15.42
2023-04-25T06:12:58.941Z,15.42
2023-04-25T06:14:31.875Z,15.47
2023-04-25T06:16:04.195Z,15.46
2023-04-25T06:17:36.773Z,15.48
2023-04-25T06:19:09.061Z,15.50
2023-04-25T06:20:41.226Z,15.51
2023-04-25T06:22:16.033Z,15.51
2023-04-25T06:23:48.208Z,15.53
2023-04-25T06:25:20.308Z,15.52
2023-04-25T06:26:52.440Z,15.54
2023-04-25T06:28:25.750Z,15.53
2023-04-25T06:29:57.711Z,15.61
2023-04-25T06:31:30.512Z,15.59
2023-04-25T06:33:02.816Z,15.60
2023-04-25T06:34:34.958Z,15.59
2023-04-25T06:36:07.306Z,15.65
2023-04-25T06:37:39.404Z,15.63
2023-04-25T06:39:12.078Z,15.64
2023-04-25T06:40:46.772Z,15.69
2023-04-25T06:42:18.822Z,15.72
2023-04-25T06:43:51.012Z,15.74
2023-04-25T06:45:23.148Z,15.77
2023-04-25T06:46:55.308Z,15.82
2023-04-25T06:48:28.710Z,15.91
2023-04-25T06:50:00.697Z,16.02
2023-04-25T06:51:32.949Z,16.01
2023-04-25T06:53:05.187Z,16.09
2023-04-25T06:54:37.263Z,16.12
2023-04-25T06:56:09.362Z,16.17
2023-04-25T06:57:41.697Z,16.24
2023-04-25T06:59:13.890Z,16.29
2023-04-25T07:00:46.189Z,16.36
2023-04-25T07:02:18.438Z,16.45
2023-04-25T07:03:50.903Z,16.47
2023-04-25T07:05:23.169Z,16.55
2023-04-25T07:06:56.233Z,16.64
2023-04-25T07:08:28.463Z,16.72
2023-04-25T07:10:00.663Z,16.79
2023-04-25T07:11:32.774Z,16.91
2023-04-25T07:13:05.352Z,17.02
2023-04-25T07:14:37.437Z,17.07
2023-04-25T07:16:09.609Z,17.11
2023-04-25T07:17:41.807Z,17.16
2023-04-25T07:19:13.919Z,17.25
2023-04-25T07:20:46.037Z,17.35
2023-04-25T07:22:18.506Z,17.47
2023-04-25T07:23:50.686Z,17.56
2023-04-25T07:25:22.749Z,17.55
2023-04-25T07:26:54.878Z,17.63
2023-04-25T07:28:27.100Z,17.65
2023-04-25T07:29:59.395Z,17.66
2023-04-25T07:31:31.636Z,17.61
2023-04-25T07:33:03.991Z,17.58
2023-04-25T07:34:38.751Z,17.64
2023-04-25T07:36:10.830Z,17.62
2023-04-25T07:37:43.028Z,17.60
2023-04-25T07:39:15.241Z,17.68
2023-04-25T07:40:47.422Z,17.68
2023-04-25T07:42:19.529Z,17.70
2023-04-25T07:43:51.628Z,17.63
2023-04-25T07:45:23.722Z,17.65
2023-04-25T07:46:56.007Z,17.58
2023-04-25T07:48:28.137Z,17.58
2023-04-25T07:50:00.279Z,17.55
2023-04-25T07:51:32.957Z,17.49
2023-04-25T07:53:05.352Z,17.53
2023-04-25T07:54:37.600Z,17.53
2023-04-25T07:56:10.620Z,17.48
2023-04-25T07:57:42.718Z,17.51
2023-04-25T07:59:14.901Z,17.52
2023-04-25T08:00:47.112Z,17.52
2023-04-25T08:02:19.182Z,17.54
2023-04-25T08:03:51.495Z,17.51
2023-04-25T08:05:24.030Z,17.52
2023-04-25T08:06:56.313Z,17.53
2023-04-25T08:08:28.641Z,17.56
2023-04-25T08:10:00.777Z,17.63
2023-04-25T08:11:32.903Z,17.64
2023-04-25T08:13:04.991Z,17.75
2023-04-25T08:14:38.582Z,17.84
2023-04-25T08:16:10.879Z,17.92
2023-04-25T08:17:43.210Z,17.97
2023-04-25T08:19:15.316Z,18.02
2023-04-25T08:20:47.517Z,18.09
2023-04-25T08:22:19.609Z,18.06
2023-04-25T08:23:51.693Z,18.15
2023-04-25T08:25:23.829Z,18.18
2023-04-25T08:26:56.802Z,18.24
2023-04-25T08:28:28.971Z,18.27
2023-04-25T08:30:01.135Z,18.26
2023-04-25T08:31:33.690Z,18.28
2023-04-25T08:33:06.172Z,18.28
2023-04-25T08:34:40.121Z,18.25
2023-04-25T08:36:12.389Z,18.28
2023-04-25T08:37:44.556Z,18.15
2023-04-25T08:39:16.760Z,18.17
2023-04-25T08:40:52.893Z,18.23
2023-04-25T08:42:26.220Z,18.20
2023-04-25T08:44:02.056Z,18.26
2023-04-25T08:45:34.960Z,18.25
2023-04-25T08:47:07.400Z,18.23
2023-04-25T08:48:42.226Z,18.20
2023-04-25T08:50:14.309Z,18.20
2023-04-25T08:51:52.281Z,18.21
2023-04-25T08:53:28.867Z,18.20
2023-04-25T08:55:02.021Z,18.17
2023-04-25T08:56:36.466Z,18.14
2023-04-25T08:58:09.353Z,18.10
2023-04-25T08:59:45.706Z,18.04
2023-04-25T09:01:18.962Z,17.92
2023-04-25T09:02:51.090Z,17.97
2023-04-25T09:04:23.548Z,17.87
2023-04-25T09:05:55.719Z,17.83
2023-04-25T09:07:27.974Z,17.85
2023-04-25T09:09:07.414Z,17.83
2023-04-25T09:10:40.271Z,17.86
2023-04-25T09:12:12.409Z,17.85
2023-04-25T09:13:44.620Z,17.89
2023-04-25T09:15:20.782Z,17.93
2023-04-25T09:17:02.450Z,17.96
2023-04-25T09:18:37.439Z,18.00
2023-04-25T09:20:11.601Z,18.09
2023-04-25T09:21:43.896Z,18.16
2023-04-25T09:23:16.663Z,18.28
2023-04-25T09:24:50.314Z,18.35
2023-04-25T09:26:22.931Z,18.43
2023-04-25T09:27:55.743Z,18.42
2023-04-25T09:29:35.961Z,18.50
2023-04-25T09:31:09.013Z,18.43
2023-04-25T09:32:44.479Z,18.38
2023-04-25T09:34:18.330Z,18.38
2023-04-25T09:35:56.635Z,18.35
2023-04-25T09:37:31.096Z,18.46
2023-04-25T09:39:05.029Z,18.50
2023-04-25T09:40:41.167Z,18.60
2023-04-25T09:42:13.318Z,18.55
2023-04-25T09:43:48.224Z,18.64
2023-04-25T09:45:20.552Z,18.72
2023-04-25T09:46:55.922Z,18.75
2023-04-25T09:48:29.506Z,18.89
2023-04-25T09:50:01.802Z,18.95
2023-04-25T09:51:33.894Z,19.06
2023-04-25T09:53:07.119Z,19.19
2023-04-25T09:54:39.150Z,19.31
2023-04-25T09:56:13.187Z,19.19
2023-04-25T09:57:47.718Z,19.18
2023-04-25T09:59:26.555Z,19.07
2023-04-25T10:01:03.776Z,19.07
2023-04-25T10:02:36.694Z,19.06
2023-04-25T10:04:12.373Z,19.00
2023-04-25T10:05:44.884Z,18.97
2023-04-25T10:07:18.260Z,18.96
2023-04-25T10:08:56.086Z,18.98
2023-04-25T10:10:31.574Z,18.94
2023-04-25T10:12:05.062Z,18.68
2023-04-25T10:13:37.696Z,18.55
2023-04-25T10:15:10.423Z,18.35
2023-04-25T10:16:43.212Z,18.38
2023-04-25T10:18:15.597Z,18.30
2023-04-25T10:19:49.104Z,18.34
2023-04-25T10:21:23.494Z,18.40
2023-04-25T10:22:57.944Z,18.44
2023-04-25T10:24:30.161Z,18.38
2023-04-25T10:26:02.553Z,18.35
2023-04-25T10:27:36.064Z,18.35
2023-04-25T10:29:08.170Z,18.39
2023-04-25T10:31:09.504Z,18.46
2023-04-25T10:32:43.437Z,18.44
2023-04-25T10:34:15.522Z,18.34
2023-04-25T10:35:47.666Z,18.33
2023-04-25T10:37:20.831Z,18.31
2023-04-25T10:38:53.167Z,18.31
2023-04-25T10:40:25.489Z,18.33
2023-04-25T10:41:58.728Z,18.33
2023-04-25T10:43:33.455Z,18.39
2023-04-25T10:45:09.325Z,18.32
2023-04-25T10:46:41.818Z,18.33
2023-04-25T10:48:27.335Z,18.54
2023-04-25T10:50:06.547Z,18.75
2023-04-25T10:51:54.464Z,18.77
2023-04-25T10:53:32.553Z,19.03
2023-04-25T10:55:05.592Z,19.12
2023-04-25T10:56:37.657Z,19.21
2023-04-25T10:58:09.750Z,19.31
2023-04-25T10:59:44.509Z,19.43
2023-04-25T11:01:29.759Z,19.50
2023-04-25T11:03:02.537Z,19.40
2023-04-25T11:04:35.627Z,19.40
2023-04-25T11:06:33.317Z,19.43
2023-04-25T11:08:11.385Z,19.43
2023-04-25T11:09:43.556Z,19.38
2023-04-25T11:11:16.574Z,19.52
2023-04-25T11:12:49.094Z,19.59
2023-04-25T11:14:21.844Z,19.72
2023-04-25T11:16:03.173Z,19.83
2023-04-25T11:17:47.818Z,19.80
2023-04-25T11:19:21.936Z,19.84
2023-04-25T11:20:54.290Z,19.67
2023-04-25T11:22:28.230Z,19.48
2023-04-25T11:24:00.915Z,19.32
2023-04-25T11:25:33.720Z,19.18
2023-04-25T11:27:07.562Z,18.93
2023-04-25T11:28:39.688Z,18.86
2023-04-25T11:30:16.929Z,18.73
2023-04-25T11:31:49.273Z,18.58
2023-04-25T11:33:25.903Z,18.55
2023-04-25T11:34:59.206Z,18.53
2023-04-25T11:36:32.204Z,18.49
2023-04-25T11:38:04.352Z,18.34
2023-04-25T11:39:36.541Z,18.26
2023-04-25T11:41:08.786Z,18.08
2023-04-25T11:42:44.815Z,17.97
2023-04-25T11:44:18.007Z,17.91
2023-04-25T11:45:52.184Z,17.77
2023-04-25T11:47:31.271Z,17.85
2023-04-25T11:49:03.982Z,17.79
2023-04-25T11:50:36.704Z,17.84
2023-04-25T11:52:09.176Z,17.83
2023-04-25T11:53:46.147Z,17.82
2023-04-25T11:55:21.842Z,17.80
2023-04-25T11:56:53.946Z,17.73
2023-04-25T11:58:27.258Z,17.71
2023-04-25T12:00:07.272Z,17.63
2023-04-25T12:01:41.100Z,17.50
2023-04-25T12:03:13.478Z,17.47
2023-04-25T12:04:46.945Z,17.35
2023-04-25T12:06:19.517Z,17.30
2023-04-25T12:07:51.858Z,17.17
2023-04-25T12:09:32.447Z,17.06
2023-04-25T12:11:04.850Z,16.96
2023-04-25T12:12:37.292Z,16.88
2023-04-25T12:14:09.528Z,16.84
2023-04-25T12:15:42.607Z,16.84
2023-04-25T12:17:14.812Z,16.80
2023-04-25T12:18:47.003Z,16.78
2023-04-25T12:20:21.833Z,16.74
2023-04-25T12:21:58.574Z,16.68
2023-04-25T12:23:32.133Z,16.50
2023-04-25T12:25:08.947Z,16.17
2023-04-25T12:27:10.813Z,15.99
2023-04-25T12:28:48.687Z,15.69
2023-04-25T12:30:21.651Z,15.24
2023-04-25T12:31:54.963Z,14.83
2023-04-25T12:33:28.570Z,14.49
2023-04-25T12:35:00.744Z,14.32
2023-04-25T12:36:33.000Z,14.23
2023-04-25T12:38:05.294Z,14.13
2023-04-25T12:39:37.622Z,13.97
2023-04-25T12:41:10.734Z,13.97
2023-04-25T12:42:42.754Z,13.92
2023-04-25T12:44:15.296Z,13.82
2023-04-25T12:45:52.502Z,13.67
2023-04-25T12:47:24.696Z,13.56
2023-04-25T12:48:58.744Z,13.51
2023-04-25T12:50:35.014Z,13.52
2023-04-25T12:52:07.125Z,13.51
2023-04-25T12:53:40.526Z,13.45
2023-04-25T12:55:12.430Z,13.45
2023-04-25T12:56:44.586Z,13.40
2023-04-25T12:58:18.197Z,13.39
2023-04-25T12:59:50.272Z,13.43
2023-04-25T13:01:23.124Z,13.50
2023-04-25T13:02:55.421Z,13.51
2023-04-25T13:04:27.938Z,13.53
2023-04-25T13:06:00.071Z,13.59
2023-04-25T13:07:33.500Z,13.62
2023-04-25T13:09:08.079Z,13.63
2023-04-25T13:10:40.646Z,13.63
2023-04-25T13:12:12.704Z,13.54
2023-04-25T13:13:45.392Z,13.51
2023-04-25T13:15:17.718Z,13.45
2023-04-25T13:16:50.086Z,13.46
2023-04-25T13:18:22.304Z,13.37
2023-04-25T13:19:54.453Z,13.37
2023-04-25T13:21:26.979Z,13.38
2023-04-25T13:23:00.268Z,13.40
2023-04-25T13:24:33.246Z,13.39
2023-04-25T13:26:05.540Z,13.35
2023-04-25T13:27:38.503Z,13.37
2023-04-25T13:29:10.574Z,13.30
2023-04-25T13:30:42.863Z,13.30
2023-04-25T13:32:14.983Z,13.28
2023-04-25T13:33:47.112Z,13.28
2023-04-25T13:35:19.254Z,13.30
2023-04-25T13:36:51.447Z,13.32
2023-04-25T13:38:24.793Z,13.30
2023-04-25T13:39:57.776Z,13.40
2023-04-25T13:41:30.288Z,13.49
2023-04-25T13:43:04.725Z,13.71
2023-04-25T13:44:36.848Z,13.87
2023-04-25T13:46:10.972Z,14.02
2023-04-25T13:47:53.074Z,14.19
2023-04-25T13:49:25.366Z,14.23
2023-04-25T13:50:57.480Z,14.20
2023-04-25T13:52:29.597Z,14.18
2023-04-25T13:54:01.916Z,14.25
2023-04-25T13:55:35.176Z,14.27
2023-04-25T13:57:08.192Z,14.31
2023-04-25T13:58:40.763Z,14.43
2023-04-25T14:00:13.501Z,14.58
2023-04-25T14:01:46.206Z,14.72
2023-04-25T14:03:18.478Z,14.80
2023-04-25T14:04:50.756Z,14.91
2023-04-25T14:06:25.254Z,14.98
2023-04-25T14:07:57.381Z,14.96
2023-04-25T14:09:30.092Z,14.96
2023-04-25T14:11:02.288Z,14.96
2023-04-25T14:12:34.529Z,14.96
2023-04-25T14:14:06.827Z,14.97
2023-04-25T14:15:39.002Z,14.98
2023-04-25T14:17:11.375Z,15.03
2023-04-25T14:18:43.506Z,15.07
2023-04-25T14:20:15.728Z,15.11
2023-04-25T14:21:48.158Z,15.19
2023-04-25T14:23:20.450Z,15.32
2023-04-25T14:24:52.542Z,15.54
2023-04-25T14:26:24.656Z,15.64
2023-04-25T14:27:56.755Z,15.71
2023-04-25T14:29:28.858Z,15.62
2023-04-25T14:31:02.073Z,15.52
2023-04-25T14:32:34.254Z,15.49
2023-04-25T14:34:06.903Z,15.48
2023-04-25T14:35:39.381Z,15.48
2023-04-25T14:37:11.483Z,15.49
2023-04-25T14:38:43.673Z,15.50
2023-04-25T14:40:16.744Z,15.55
2023-04-25T14:41:48.945Z,15.55
2023-04-25T14:43:21.203Z,15.63
2023-04-25T14:44:53.336Z,15.71
2023-04-25T14:46:25.623Z,15.78
2023-04-25T14:47:57.825Z,15.87
2023-04-25T14:49:29.947Z,15.99
2023-04-25T14:51:02.452Z,16.09
2023-04-25T14:52:34.632Z,16.17
2023-04-25T14:54:06.776Z,16.23
2023-04-25T14:55:38.986Z,16.24
2023-04-25T14:57:11.117Z,16.30
2023-04-25T14:58:43.192Z,16.31
2023-04-25T15:00:20.638Z,16.34
2023-04-25T15:01:53.350Z,16.30
2023-04-25T15:03:25.774Z,16.35
2023-04-25T15:04:58.072Z,16.44
2023-04-25T15:06:31.662Z,16.52
2023-04-25T15:08:03.920Z,16.51
2023-04-25T15:09:36.277Z,16.50
2023-04-25T15:11:08.458Z,16.58
2023-04-25T15:12:46.881Z,16.69
2023-04-25T15:14:19.752Z,16.67
2023-04-25T15:15:52.574Z,16.71
2023-04-25T15:17:24.749Z,16.65
2023-04-25T15:18:56.898Z,16.61
2023-04-25T15:20:29.032Z,16.56
2023-04-25T15:22:02.778Z,16.50
2023-04-25T15:23:34.877Z,16.41
2023-04-25T15:25:09.172Z,16.32
2023-04-25T15:26:41.297Z,16.24
2023-04-25T15:28:16.328Z,16.16
2023-04-25T15:29:48.589Z,16.08
2023-04-25T15:31:21.408Z,16.01
2023-04-25T15:32:53.708Z,15.97
2023-04-25T15:34:25.925Z,15.96
2023-04-25T15:35:59.232Z,15.96
2023-04-25T15:37:31.840Z,16.01
2023-04-25T15:39:04.143Z,15.93
2023-04-25T15:40:36.315Z,15.89
2023-04-25T15:42:08.916Z,15.87
2023-04-25T15:43:41.201Z,15.83
2023-04-25T15:45:13.293Z,15.81
2023-04-25T15:46:46.220Z,15.77
2023-04-25T15:48:18.288Z,15.76
2023-04-25T15:49:50.421Z,15.80
2023-04-25T15:51:22.604Z,15.80
2023-04-25T15:52:54.873Z,15.77
2023-04-25T15:54:27.050Z,15.74
2023-04-25T15:55:59.239Z,15.75
2023-04-25T15:57:33.371Z,15.72
2023-04-25T17:02:27.452Z,14.80
2023-04-25T17:04:00.444Z,14.76
2023-04-25T17:05:35.773Z,14.78
2023-04-25T17:07:08.805Z,14.76
2023-04-25T17:08:41.670Z,14.75
2023-04-25T17:10:13.841Z,14.74
2023-04-25T17:11:46.042Z,14.72
2023-04-25T17:13:18.193Z,14.69
2023-04-25T17:14:50.771Z,14.70
2023-04-25T17:16:25.729Z,14.68
2023-04-25T17:17:57.997Z,14.65
2023-04-25T17:19:31.872Z,14.63
2023-04-25T17:21:04.892Z,14.61
2023-04-25T17:22:37.693Z,14.59
2023-04-25T17:24:10.295Z,14.57
2023-04-25T17:25:42.455Z,14.53
2023-04-25T17:27:14.665Z,14.52
2023-04-25T17:28:50.025Z,14.51
2023-04-25T17:30:24.626Z,14.54
2023-04-25T17:31:57.621Z,14.50
2023-04-25T17:33:29.790Z,14.51
2023-04-25T17:35:02.016Z,14.50
2023-04-25T17:36:34.122Z,14.50
2023-04-25T17:38:06.391Z,14.49
2023-04-25T17:39:38.567Z,14.48
2023-04-25T17:41:11.128Z,14.47
2023-04-25T17:42:43.693Z,14.46
2023-04-25T17:44:15.844Z,14.44
2023-04-25T17:45:48.096Z,14.43
2023-04-25T17:47:20.230Z,14.40
2023-04-25T17:48:52.666Z,14.37
2023-04-25T17:50:25.303Z,14.34
2023-04-25T17:51:57.430Z,14.31
2023-04-25T17:53:29.587Z,14.29
2023-04-25T17:55:01.770Z,14.26
2023-04-25T17:56:36.872Z,14.27
2023-04-25T17:58:09.040Z,14.22
2023-04-25T17:59:41.203Z,14.18
2023-04-25T18:01:13.348Z,14.16
2023-04-25T18:02:47.637Z,14.13
2023-04-25T18:04:19.933Z,14.11
2023-04-25T18:05:52.144Z,14.10
2023-04-25T18:07:24.299Z,14.09
2023-04-25T18:08:57.639Z,14.09
2023-04-25T18:10:29.654Z,14.14
2023-04-25T18:12:02.548Z,14.09
2023-04-25T18:13:34.672Z,14.04
2023-04-25T18:15:07.651Z,14.04
2023-04-25T18:16:39.874Z,14.00
2023-04-25T18:18:20.188Z,13.98
2023-04-25T18:19:52.501Z,13.94
2023-04-25T18:21:24.823Z,13.92
2023-04-25T18:22:56.919Z,13.91
2023-04-25T18:24:29.088Z,13.87
2023-04-25T18:26:01.583Z,13.86
2023-04-25T18:27:33.738Z,13.85
2023-04-25T18:29:07.626Z,13.82
2023-04-25T18:30:39.818Z,13.80
2023-04-25T18:32:12.243Z,13.77
2023-04-25T18:33:44.926Z,13.76
2023-04-25T18:35:17.511Z,13.74
2023-04-25T18:36:49.645Z,13.70
2023-04-25T18:38:34.884Z,13.69
2023-04-25T18:40:10.513Z,13.68
2023-04-25T18:41:55.219Z,13.63
2023-04-25T18:43:32.465Z,13.61
2023-04-25T18:45:05.884Z,13.61
2023-04-25T18:46:38.163Z,13.67
2023-04-25T18:48:10.394Z,13.62
2023-04-25T18:49:42.704Z,13.64
2023-04-25T18:51:15.131Z,13.63
2023-04-25T18:52:47.256Z,13.66
2023-04-25T18:54:19.436Z,13.65
2023-04-25T18:55:51.676Z,13.62
2023-04-25T18:57:23.826Z,13.61
2023-04-25T18:58:56.771Z,13.62
2023-04-25T19:00:29.624Z,13.60
2023-04-25T19:02:05.768Z,13.58
2023-04-25T19:03:38.597Z,13.57
2023-04-25T19:05:11.692Z,13.57
2023-04-25T19:06:43.897Z,13.56
2023-04-25T19:08:16.040Z,13.55
2023-04-25T19:09:48.280Z,13.56
2023-04-25T19:11:21.936Z,13.56
2023-04-25T19:12:54.397Z,13.54
2023-04-25T19:14:28.043Z,13.53
2023-04-25T19:16:00.112Z,13.54
2023-04-25T19:17:32.440Z,13.56
2023-04-25T19:19:08.138Z,13.58
2023-04-25T19:20:40.208Z,13.56
2023-04-25T19:22:12.423Z,13.54
2023-04-25T19:23:44.672Z,13.54
2023-04-25T19:25:16.840Z,13.55
2023-04-25T19:26:49.037Z,13.54
2023-04-25T19:28:21.240Z,13.52
2023-04-25T19:29:58.717Z,13.53
2023-04-25T19:31:31.072Z,13.51
2023-04-25T19:33:03.828Z,13.51
2023-04-25T19:34:36.944Z,13.50
2023-04-25T19:36:09.108Z,13.49
2023-04-25T19:37:47.264Z,13.48
2023-04-25T19:39:20.108Z,13.46
2023-04-25T19:40:52.248Z,13.44
2023-04-25T19:42:24.532Z,13.42
2023-04-25T19:43:56.628Z,13.38
2023-04-25T19:45:28.880Z,13.36
2023-04-25T19:47:02.259Z,13.33
2023-04-25T19:48:34.890Z,13.37
2023-04-25T19:50:08.808Z,13.30
2023-04-25T19:51:41.153Z,13.25
2023-04-25T19:53:13.239Z,13.24
2023-04-25T19:54:48.062Z,13.21
2023-04-25T19:56:20.173Z,13.22
2023-04-25T19:57:52.439Z,13.21
2023-04-25T19:59:24.639Z,13.19
2023-04-25T20:00:58.113Z,13.18
2023-04-25T20:02:30.412Z,13.18
2023-04-25T20:04:02.626Z,13.20
2023-04-25T20:05:34.709Z,13.20
2023-04-25T20:07:06.893Z,13.20
2023-04-25T20:08:39.030Z,13.19
2023-04-25T20:10:16.136Z,13.20
2023-04-25T20:11:48.354Z,13.19
2023-04-25T20:13:20.528Z,13.18
2023-04-25T20:14:52.611Z,13.18
2023-04-25T20:16:24.785Z,13.18
2023-04-25T20:17:56.913Z,13.19
2023-04-25T20:19:29.170Z,13.16
2023-04-25T20:21:02.512Z,13.13
2023-04-25T20:22:36.552Z,13.18
2023-04-25T20:24:11.698Z,13.11
2023-04-25T20:25:43.943Z,13.10
2023-04-25T20:27:16.047Z,13.08
2023-04-25T20:28:48.246Z,13.06
2023-04-25T20:30:20.367Z,13.01
2023-04-25T20:31:53.532Z,13.01
2023-04-25T20:33:25.673Z,12.98
2023-04-25T20:34:58.223Z,12.95
2023-04-25T20:36:30.829Z,12.95
2023-04-25T20:38:02.937Z,12.94
2023-04-25T20:39:35.444Z,12.91
2023-04-25T20:41:07.695Z,12.92
2023-04-25T20:42:39.865Z,12.89
2023-04-25T20:44:12.876Z,12.91
2023-04-25T20:45:45.187Z,12.90
2023-04-25T20:47:17.445Z,12.91
2023-04-25T20:50:22.272Z,12.93
2023-04-25T20:51:54.368Z,12.90
2023-04-25T20:53:26.962Z,12.88
2023-04-25T20:54:59.430Z,12.88
2023-04-25T20:56:31.608Z,12.80
2023-04-25T20:58:03.856Z,12.78
2023-04-25T20:59:36.181Z,12.78
2023-04-25T21:01:08.535Z,12.75
2023-04-25T21:02:40.908Z,12.76
2023-04-25T21:04:13.353Z,12.71
2023-04-25T21:05:45.645Z,12.68